sensor_id;sensor_type;location;lat;lon;timestamp;P1;durP1;ratioP1;P2;durP2;ratioP2
18568;SDS011;14780;48.316;-1.050;2024-01-11T00:01:34;6.43;;;4.70;;
18568;SDS011;14780;48.316;-1.050;2024-01-11T00:04:19;7.25;;;4.95;;
18568;SDS011;14780;48.316;-1.050;2024-01-11T00:07:03;5.80;;;4.68;;
18568;SDS011;14780;48.316;-1.050;2024-01-11T00:09:48;5.80;;;4.80;;
18568;SDS011;14780;48.316;-1.050;2024-01-11T00:12:32;7.22;;;5.00;;
18568;SDS011;14780;48.316;-1.050;2024-01-11T00:15:18;6.43;;;4.57;;
18568;SDS011;14780;48.316;-1.050;2024-01-11T00:18:03;6.78;;;4.70;;
18568;SDS011;14780;48.316;-1.050;2024-01-11T00:20:48;6.00;;;4.60;;
18568;SDS011;14780;48.316;-1.050;2024-01-11T00:23:33;7.25;;;5.10;;
18568;SDS011;14780;48.316;-1.050;2024-01-11T00:26:17;7.95;;;4.50;;
18568;SDS011;14780;48.316;-1.050;2024-01-11T00:29:02;7.50;;;4.73;;
18568;SDS011;14780;48.316;-1.050;2024-01-11T00:31:47;7.60;;;4.80;;
18568;SDS011;14780;48.316;-1.050;2024-01-11T00:34:32;6.22;;;4.68;;
18568;SDS011;14780;48.316;-1.050;2024-01-11T00:37:16;7.18;;;4.93;;
18568;SDS011;14780;48.316;-1.050;2024-01-11T00:40:01;6.90;;;4.80;;
18568;SDS011;14780;48.316;-1.050;2024-01-11T00:42:46;5.65;;;4.35;;
18568;SDS011;14780;48.316;-1.050;2024-01-11T00:45:31;6.68;;;4.60;;
18568;SDS011;14780;48.316;-1.050;2024-01-11T00:48:16;7.32;;;4.70;;
18568;SDS011;14780;48.316;-1.050;2024-01-11T00:51:00;6.07;;;4.55;;
18568;SDS011;14780;48.316;-1.050;2024-01-11T00:53:47;6.10;;;4.60;;
18568;SDS011;14780;48.316;-1.050;2024-01-11T00:56:31;6.60;;;4.70;;
18568;SDS011;14780;48.316;-1.050;2024-01-11T00:59:16;6.25;;;4.50;;
18568;SDS011;14780;48.316;-1.050;2024-01-11T01:02:01;6.93;;;4.63;;
18568;SDS011;14780;48.316;-1.050;2024-01-11T01:04:46;5.80;;;4.78;;
18568;SDS011;14780;48.316;-1.050;2024-01-11T01:07:31;6.55;;;4.70;;
18568;SDS011;14780;48.316;-1.050;2024-01-11T01:10:16;6.47;;;4.70;;
18568;SDS011;14780;48.316;-1.050;2024-01-11T01:13:00;6.45;;;4.80;;
18568;SDS011;14780;48.316;-1.050;2024-01-11T01:15:46;6.47;;;4.70;;
18568;SDS011;14780;48.316;-1.050;2024-01-11T01:18:30;7.15;;;4.47;;
18568;SDS011;14780;48.316;-1.050;2024-01-11T01:21:15;6.45;;;4.97;;
18568;SDS011;14780;48.316;-1.050;2024-01-11T01:23:59;6.15;;;4.70;;
18568;SDS011;14780;48.316;-1.050;2024-01-11T01:26:44;6.50;;;4.80;;
18568;SDS011;14780;48.316;-1.050;2024-01-11T01:29:28;7.93;;;4.93;;
18568;SDS011;14780;48.316;-1.050;2024-01-11T01:32:13;7.22;;;4.63;;
18568;SDS011;14780;48.316;-1.050;2024-01-11T01:34:58;5.87;;;4.33;;
18568;SDS011;14780;48.316;-1.050;2024-01-11T01:37:42;7.72;;;4.85;;
18568;SDS011;14780;48.316;-1.050;2024-01-11T01:40:29;6.30;;;4.60;;
18568;SDS011;14780;48.316;-1.050;2024-01-11T01:43:15;6.30;;;4.50;;
18568;SDS011;14780;48.316;-1.050;2024-01-11T01:46:00;6.30;;;4.57;;
18568;SDS011;14780;48.316;-1.050;2024-01-11T01:48:44;6.18;;;4.82;;
18568;SDS011;14780;48.316;-1.050;2024-01-11T01:51:29;6.22;;;4.60;;
18568;SDS011;14780;48.316;-1.050;2024-01-11T01:54:16;6.68;;;4.90;;
18568;SDS011;14780;48.316;-1.050;2024-01-11T01:57:02;6.15;;;4.70;;
18568;SDS011;14780;48.316;-1.050;2024-01-11T01:59:49;5.85;;;4.65;;
18568;SDS011;14780;48.316;-1.050;2024-01-11T02:02:42;6.90;;;4.50;;
18568;SDS011;14780;48.316;-1.050;2024-01-11T02:05:31;5.97;;;4.47;;
18568;SDS011;14780;48.316;-1.050;2024-01-11T02:08:16;7.32;;;4.80;;
18568;SDS011;14780;48.316;-1.050;2024-01-11T02:11:05;6.43;;;4.90;;
18568;SDS011;14780;48.316;-1.050;2024-01-11T02:13:50;6.10;;;4.70;;
18568;SDS011;14780;48.316;-1.050;2024-01-11T02:16:36;7.45;;;4.80;;
18568;SDS011;14780;48.316;-1.050;2024-01-11T02:19:21;5.67;;;4.53;;
18568;SDS011;14780;48.316;-1.050;2024-01-11T02:22:08;6.40;;;4.50;;
18568;SDS011;14780;48.316;-1.050;2024-01-11T02:25:11;6.15;;;4.63;;
18568;SDS011;14780;48.316;-1.050;2024-01-11T02:27:55;6.93;;;4.90;;
18568;SDS011;14780;48.316;-1.050;2024-01-11T02:30:40;6.50;;;4.85;;
18568;SDS011;14780;48.316;-1.050;2024-01-11T02:33:26;7.95;;;4.82;;
18568;SDS011;14780;48.316;-1.050;2024-01-11T02:36:11;6.63;;;4.65;;
18568;SDS011;14780;48.316;-1.050;2024-01-11T02:38:57;7.20;;;4.60;;
18568;SDS011;14780;48.316;-1.050;2024-01-11T02:41:42;7.33;;;5.00;;
18568;SDS011;14780;48.316;-1.050;2024-01-11T02:44:28;7.75;;;4.93;;
18568;SDS011;14780;48.316;-1.050;2024-01-11T02:47:13;6.40;;;4.60;;
18568;SDS011;14780;48.316;-1.050;2024-01-11T02:49:57;7.07;;;4.93;;
18568;SDS011;14780;48.316;-1.050;2024-01-11T02:52:42;6.63;;;4.72;;
18568;SDS011;14780;48.316;-1.050;2024-01-11T02:55:27;6.18;;;4.75;;
18568;SDS011;14780;48.316;-1.050;2024-01-11T02:58:11;7.28;;;5.00;;
18568;SDS011;14780;48.316;-1.050;2024-01-11T03:00:56;6.93;;;4.85;;
18568;SDS011;14780;48.316;-1.050;2024-01-11T03:03:41;6.45;;;4.85;;
18568;SDS011;14780;48.316;-1.050;2024-01-11T03:06:25;6.83;;;5.13;;
18568;SDS011;14780;48.316;-1.050;2024-01-11T03:09:10;6.45;;;4.93;;
18568;SDS011;14780;48.316;-1.050;2024-01-11T03:11:55;5.95;;;4.60;;
18568;SDS011;14780;48.316;-1.050;2024-01-11T03:14:39;6.82;;;5.03;;
18568;SDS011;14780;48.316;-1.050;2024-01-11T03:17:24;6.45;;;5.05;;
18568;SDS011;14780;48.316;-1.050;2024-01-11T03:20:08;7.25;;;4.88;;
18568;SDS011;14780;48.316;-1.050;2024-01-11T03:22:53;7.47;;;4.80;;
18568;SDS011;14780;48.316;-1.050;2024-01-11T03:25:38;6.83;;;4.73;;
18568;SDS011;14780;48.316;-1.050;2024-01-11T03:28:23;7.60;;;5.32;;
18568;SDS011;14780;48.316;-1.050;2024-01-11T03:31:08;7.63;;;5.28;;
18568;SDS011;14780;48.316;-1.050;2024-01-11T03:33:53;7.50;;;4.95;;
18568;SDS011;14780;48.316;-1.050;2024-01-11T03:36:38;6.95;;;5.00;;
18568;SDS011;14780;48.316;-1.050;2024-01-11T03:39:24;7.22;;;5.20;;
18568;SDS011;14780;48.316;-1.050;2024-01-11T03:42:09;6.03;;;4.90;;
18568;SDS011;14780;48.316;-1.050;2024-01-11T03:44:54;6.40;;;5.13;;
18568;SDS011;14780;48.316;-1.050;2024-01-11T03:47:39;7.90;;;4.80;;
18568;SDS011;14780;48.316;-1.050;2024-01-11T03:50:26;7.05;;;5.00;;
18568;SDS011;14780;48.316;-1.050;2024-01-11T03:53:10;6.65;;;5.20;;
18568;SDS011;14780;48.316;-1.050;2024-01-11T03:55:55;6.57;;;4.88;;
18568;SDS011;14780;48.316;-1.050;2024-01-11T03:58:39;6.35;;;4.78;;
18568;SDS011;14780;48.316;-1.050;2024-01-11T04:01:25;6.40;;;4.63;;
18568;SDS011;14780;48.316;-1.050;2024-01-11T04:04:10;7.53;;;5.35;;
18568;SDS011;14780;48.316;-1.050;2024-01-11T04:06:56;7.00;;;5.05;;
18568;SDS011;14780;48.316;-1.050;2024-01-11T04:09:40;6.32;;;5.00;;
18568;SDS011;14780;48.316;-1.050;2024-01-11T04:12:25;6.88;;;5.20;;
18568;SDS011;14780;48.316;-1.050;2024-01-11T04:15:13;6.93;;;5.28;;
18568;SDS011;14780;48.316;-1.050;2024-01-11T04:17:57;6.60;;;4.88;;
18568;SDS011;14780;48.316;-1.050;2024-01-11T04:20:42;7.15;;;4.72;;
18568;SDS011;14780;48.316;-1.050;2024-01-11T04:23:26;7.53;;;5.03;;
18568;SDS011;14780;48.316;-1.050;2024-01-11T04:26:11;6.47;;;4.82;;
18568;SDS011;14780;48.316;-1.050;2024-01-11T04:28:56;7.70;;;5.25;;
18568;SDS011;14780;48.316;-1.050;2024-01-11T04:31:43;7.55;;;4.90;;
18568;SDS011;14780;48.316;-1.050;2024-01-11T04:34:27;7.10;;;5.25;;
18568;SDS011;14780;48.316;-1.050;2024-01-11T04:37:12;6.85;;;5.10;;
18568;SDS011;14780;48.316;-1.050;2024-01-11T04:39:56;8.73;;;5.28;;
18568;SDS011;14780;48.316;-1.050;2024-01-11T04:42:43;7.32;;;5.20;;
18568;SDS011;14780;48.316;-1.050;2024-01-11T04:45:28;7.70;;;5.30;;
18568;SDS011;14780;48.316;-1.050;2024-01-11T04:48:13;6.95;;;5.22;;
18568;SDS011;14780;48.316;-1.050;2024-01-11T04:50:57;6.90;;;5.07;;
18568;SDS011;14780;48.316;-1.050;2024-01-11T04:53:42;6.70;;;5.00;;
18568;SDS011;14780;48.316;-1.050;2024-01-11T04:56:28;7.05;;;5.43;;
18568;SDS011;14780;48.316;-1.050;2024-01-11T04:59:13;8.07;;;5.55;;
18568;SDS011;14780;48.316;-1.050;2024-01-11T05:01:58;6.93;;;5.28;;
18568;SDS011;14780;48.316;-1.050;2024-01-11T05:04:43;6.63;;;5.22;;
18568;SDS011;14780;48.316;-1.050;2024-01-11T05:07:27;7.30;;;5.35;;
18568;SDS011;14780;48.316;-1.050;2024-01-11T05:10:12;7.93;;;5.43;;
18568;SDS011;14780;48.316;-1.050;2024-01-11T05:12:58;7.85;;;5.30;;
18568;SDS011;14780;48.316;-1.050;2024-01-11T05:15:42;7.15;;;5.28;;
18568;SDS011;14780;48.316;-1.050;2024-01-11T05:18:27;7.15;;;5.45;;
18568;SDS011;14780;48.316;-1.050;2024-01-11T05:21:12;7.18;;;5.15;;
18568;SDS011;14780;48.316;-1.050;2024-01-11T05:23:56;8.25;;;5.63;;
18568;SDS011;14780;48.316;-1.050;2024-01-11T05:26:41;7.67;;;5.30;;
18568;SDS011;14780;48.316;-1.050;2024-01-11T05:29:26;9.10;;;5.72;;
18568;SDS011;14780;48.316;-1.050;2024-01-11T05:32:10;7.47;;;5.23;;
18568;SDS011;14780;48.316;-1.050;2024-01-11T05:34:55;7.35;;;5.22;;
18568;SDS011;14780;48.316;-1.050;2024-01-11T05:37:40;6.57;;;5.03;;
18568;SDS011;14780;48.316;-1.050;2024-01-11T05:40:24;7.15;;;5.30;;
18568;SDS011;14780;48.316;-1.050;2024-01-11T05:43:11;7.50;;;5.30;;
18568;SDS011;14780;48.316;-1.050;2024-01-11T05:45:55;7.65;;;5.38;;
18568;SDS011;14780;48.316;-1.050;2024-01-11T05:48:41;7.53;;;5.15;;
18568;SDS011;14780;48.316;-1.050;2024-01-11T05:51:26;7.60;;;5.30;;
18568;SDS011;14780;48.316;-1.050;2024-01-11T05:54:10;6.50;;;5.22;;
18568;SDS011;14780;48.316;-1.050;2024-01-11T05:56:55;7.67;;;5.47;;
18568;SDS011;14780;48.316;-1.050;2024-01-11T05:59:45;7.70;;;5.53;;
18568;SDS011;14780;48.316;-1.050;2024-01-11T06:02:30;6.90;;;5.00;;
18568;SDS011;14780;48.316;-1.050;2024-01-11T06:05:15;7.28;;;5.45;;
18568;SDS011;14780;48.316;-1.050;2024-01-11T06:08:00;7.15;;;5.28;;
18568;SDS011;14780;48.316;-1.050;2024-01-11T06:10:44;8.35;;;5.55;;
18568;SDS011;14780;48.316;-1.050;2024-01-11T06:13:29;7.75;;;5.75;;
18568;SDS011;14780;48.316;-1.050;2024-01-11T06:16:14;8.48;;;5.28;;
18568;SDS011;14780;48.316;-1.050;2024-01-11T06:18:58;9.05;;;5.70;;
18568;SDS011;14780;48.316;-1.050;2024-01-11T06:21:43;7.10;;;5.22;;
18568;SDS011;14780;48.316;-1.050;2024-01-11T06:24:28;8.05;;;5.68;;
18568;SDS011;14780;48.316;-1.050;2024-01-11T06:27:13;8.07;;;5.63;;
18568;SDS011;14780;48.316;-1.050;2024-01-11T06:29:57;7.40;;;5.50;;
18568;SDS011;14780;48.316;-1.050;2024-01-11T06:32:43;8.35;;;5.70;;
18568;SDS011;14780;48.316;-1.050;2024-01-11T06:35:28;7.80;;;5.57;;
18568;SDS011;14780;48.316;-1.050;2024-01-11T06:38:12;9.50;;;5.57;;
18568;SDS011;14780;48.316;-1.050;2024-01-11T06:40:57;7.55;;;5.88;;
18568;SDS011;14780;48.316;-1.050;2024-01-11T06:43:42;6.80;;;5.43;;
18568;SDS011;14780;48.316;-1.050;2024-01-11T06:46:26;7.40;;;5.70;;
18568;SDS011;14780;48.316;-1.050;2024-01-11T06:49:11;7.13;;;5.60;;
18568;SDS011;14780;48.316;-1.050;2024-01-11T06:51:55;7.95;;;5.80;;
18568;SDS011;14780;48.316;-1.050;2024-01-11T06:54:40;7.82;;;5.53;;
18568;SDS011;14780;48.316;-1.050;2024-01-11T06:57:25;7.25;;;5.38;;
18568;SDS011;14780;48.316;-1.050;2024-01-11T07:00:10;7.40;;;5.18;;
18568;SDS011;14780;48.316;-1.050;2024-01-11T07:02:55;8.73;;;5.70;;
18568;SDS011;14780;48.316;-1.050;2024-01-11T07:05:40;7.85;;;5.57;;
18568;SDS011;14780;48.316;-1.050;2024-01-11T07:08:25;8.07;;;5.63;;
18568;SDS011;14780;48.316;-1.050;2024-01-11T07:11:09;7.93;;;5.28;;
18568;SDS011;14780;48.316;-1.050;2024-01-11T07:13:55;8.65;;;5.60;;
18568;SDS011;14780;48.316;-1.050;2024-01-11T07:16:39;7.88;;;5.60;;
18568;SDS011;14780;48.316;-1.050;2024-01-11T07:19:24;7.70;;;5.77;;
18568;SDS011;14780;48.316;-1.050;2024-01-11T07:22:08;8.40;;;5.72;;
18568;SDS011;14780;48.316;-1.050;2024-01-11T07:24:53;7.65;;;5.45;;
18568;SDS011;14780;48.316;-1.050;2024-01-11T07:27:37;8.02;;;5.72;;
18568;SDS011;14780;48.316;-1.050;2024-01-11T07:30:22;8.70;;;5.72;;
18568;SDS011;14780;48.316;-1.050;2024-01-11T07:33:07;8.65;;;5.90;;
18568;SDS011;14780;48.316;-1.050;2024-01-11T07:35:53;9.40;;;5.90;;
18568;SDS011;14780;48.316;-1.050;2024-01-11T07:38:38;9.48;;;5.85;;
18568;SDS011;14780;48.316;-1.050;2024-01-11T07:41:23;10.38;;;5.80;;
18568;SDS011;14780;48.316;-1.050;2024-01-11T07:44:07;11.48;;;6.28;;
18568;SDS011;14780;48.316;-1.050;2024-01-11T07:46:52;10.77;;;6.03;;
18568;SDS011;14780;48.316;-1.050;2024-01-11T07:49:37;10.73;;;5.82;;
18568;SDS011;14780;48.316;-1.050;2024-01-11T07:52:22;11.02;;;6.38;;
18568;SDS011;14780;48.316;-1.050;2024-01-11T07:55:07;9.20;;;6.38;;
18568;SDS011;14780;48.316;-1.050;2024-01-11T07:57:54;8.67;;;5.57;;
18568;SDS011;14780;48.316;-1.050;2024-01-11T08:00:39;10.00;;;6.13;;
18568;SDS011;14780;48.316;-1.050;2024-01-11T08:03:24;9.07;;;5.53;;
18568;SDS011;14780;48.316;-1.050;2024-01-11T08:06:09;9.55;;;6.20;;
18568;SDS011;14780;48.316;-1.050;2024-01-11T08:08:54;10.20;;;5.80;;
18568;SDS011;14780;48.316;-1.050;2024-01-11T08:11:38;9.25;;;5.95;;
18568;SDS011;14780;48.316;-1.050;2024-01-11T08:14:25;8.25;;;5.85;;
18568;SDS011;14780;48.316;-1.050;2024-01-11T08:17:10;9.65;;;5.88;;
18568;SDS011;14780;48.316;-1.050;2024-01-11T08:19:54;8.73;;;5.72;;
18568;SDS011;14780;48.316;-1.050;2024-01-11T08:22:43;7.32;;;5.53;;
18568;SDS011;14780;48.316;-1.050;2024-01-11T08:25:30;9.68;;;6.22;;
18568;SDS011;14780;48.316;-1.050;2024-01-11T08:28:14;8.65;;;5.80;;
18568;SDS011;14780;48.316;-1.050;2024-01-11T08:30:59;9.38;;;5.90;;
18568;SDS011;14780;48.316;-1.050;2024-01-11T08:33:44;7.97;;;6.10;;
18568;SDS011;14780;48.316;-1.050;2024-01-11T08:36:32;7.60;;;5.82;;
18568;SDS011;14780;48.316;-1.050;2024-01-11T08:39:18;8.02;;;5.72;;
18568;SDS011;14780;48.316;-1.050;2024-01-11T08:42:03;11.60;;;6.45;;
18568;SDS011;14780;48.316;-1.050;2024-01-11T08:44:48;8.40;;;6.28;;
18568;SDS011;14780;48.316;-1.050;2024-01-11T08:47:33;9.25;;;6.38;;
18568;SDS011;14780;48.316;-1.050;2024-01-11T08:50:18;9.45;;;6.03;;
18568;SDS011;14780;48.316;-1.050;2024-01-11T08:53:05;9.70;;;6.32;;
18568;SDS011;14780;48.316;-1.050;2024-01-11T08:55:50;10.02;;;6.97;;
18568;SDS011;14780;48.316;-1.050;2024-01-11T08:58:36;10.00;;;7.30;;
18568;SDS011;14780;48.316;-1.050;2024-01-11T09:01:21;12.97;;;7.80;;
18568;SDS011;14780;48.316;-1.050;2024-01-11T09:04:06;12.13;;;7.07;;
18568;SDS011;14780;48.316;-1.050;2024-01-11T09:06:52;11.82;;;7.28;;
18568;SDS011;14780;48.316;-1.050;2024-01-11T09:09:37;11.00;;;7.45;;
18568;SDS011;14780;48.316;-1.050;2024-01-11T09:12:21;11.00;;;7.35;;
18568;SDS011;14780;48.316;-1.050;2024-01-11T09:15:06;10.23;;;6.90;;
18568;SDS011;14780;48.316;-1.050;2024-01-11T09:17:51;9.67;;;6.93;;
18568;SDS011;14780;48.316;-1.050;2024-01-11T09:20:35;11.20;;;7.30;;
18568;SDS011;14780;48.316;-1.050;2024-01-11T09:23:20;10.70;;;7.43;;
18568;SDS011;14780;48.316;-1.050;2024-01-11T09:26:05;12.15;;;8.05;;
18568;SDS011;14780;48.316;-1.050;2024-01-11T09:28:50;14.48;;;9.55;;
18568;SDS011;14780;48.316;-1.050;2024-01-11T09:31:34;14.60;;;8.98;;
18568;SDS011;14780;48.316;-1.050;2024-01-11T09:34:19;14.63;;;9.45;;
18568;SDS011;14780;48.316;-1.050;2024-01-11T09:37:04;15.07;;;8.93;;
18568;SDS011;14780;48.316;-1.050;2024-01-11T09:39:49;16.30;;;8.90;;
18568;SDS011;14780;48.316;-1.050;2024-01-11T09:42:34;15.07;;;8.83;;
18568;SDS011;14780;48.316;-1.050;2024-01-11T09:45:19;14.75;;;8.73;;
18568;SDS011;14780;48.316;-1.050;2024-01-11T09:48:06;14.15;;;8.93;;
18568;SDS011;14780;48.316;-1.050;2024-01-11T09:50:52;14.88;;;9.63;;
18568;SDS011;14780;48.316;-1.050;2024-01-11T09:53:39;14.50;;;9.23;;
18568;SDS011;14780;48.316;-1.050;2024-01-11T09:56:25;14.60;;;8.80;;
18568;SDS011;14780;48.316;-1.050;2024-01-11T09:59:12;12.52;;;8.60;;
18568;SDS011;14780;48.316;-1.050;2024-01-11T10:01:58;14.45;;;9.10;;
18568;SDS011;14780;48.316;-1.050;2024-01-11T10:04:44;13.55;;;8.90;;
18568;SDS011;14780;48.316;-1.050;2024-01-11T10:07:29;12.63;;;8.75;;
18568;SDS011;14780;48.316;-1.050;2024-01-11T10:10:16;14.10;;;9.18;;
18568;SDS011;14780;48.316;-1.050;2024-01-11T10:13:01;14.63;;;9.27;;
18568;SDS011;14780;48.316;-1.050;2024-01-11T10:15:46;13.00;;;8.80;;
18568;SDS011;14780;48.316;-1.050;2024-01-11T10:18:30;15.13;;;9.05;;
18568;SDS011;14780;48.316;-1.050;2024-01-11T10:21:15;14.00;;;9.00;;
18568;SDS011;14780;48.316;-1.050;2024-01-11T10:24:00;14.70;;;9.27;;
18568;SDS011;14780;48.316;-1.050;2024-01-11T10:26:48;16.42;;;8.65;;
18568;SDS011;14780;48.316;-1.050;2024-01-11T10:29:33;15.75;;;8.80;;
18568;SDS011;14780;48.316;-1.050;2024-01-11T10:32:21;12.85;;;8.40;;
18568;SDS011;14780;48.316;-1.050;2024-01-11T10:35:06;13.50;;;8.13;;
18568;SDS011;14780;48.316;-1.050;2024-01-11T10:37:53;13.48;;;8.75;;
18568;SDS011;14780;48.316;-1.050;2024-01-11T10:40:40;13.90;;;8.65;;
18568;SDS011;14780;48.316;-1.050;2024-01-11T10:43:26;11.88;;;7.95;;
18568;SDS011;14780;48.316;-1.050;2024-01-11T10:46:11;12.48;;;8.02;;
18568;SDS011;14780;48.316;-1.050;2024-01-11T10:48:58;12.93;;;8.40;;
18568;SDS011;14780;48.316;-1.050;2024-01-11T10:51:50;12.23;;;8.35;;
18568;SDS011;14780;48.316;-1.050;2024-01-11T10:54:41;12.50;;;7.97;;
18568;SDS011;14780;48.316;-1.050;2024-01-11T10:57:27;11.60;;;8.07;;
18568;SDS011;14780;48.316;-1.050;2024-01-11T11:00:14;11.40;;;8.18;;
18568;SDS011;14780;48.316;-1.050;2024-01-11T11:03:00;11.93;;;7.93;;
18568;SDS011;14780;48.316;-1.050;2024-01-11T11:05:47;11.77;;;7.88;;
18568;SDS011;14780;48.316;-1.050;2024-01-11T11:08:34;12.47;;;7.60;;
18568;SDS011;14780;48.316;-1.050;2024-01-11T11:11:20;11.57;;;7.25;;
18568;SDS011;14780;48.316;-1.050;2024-01-11T11:14:06;11.82;;;7.55;;
18568;SDS011;14780;48.316;-1.050;2024-01-11T11:16:53;10.48;;;7.15;;
18568;SDS011;14780;48.316;-1.050;2024-01-11T11:19:38;9.50;;;6.88;;
18568;SDS011;14780;48.316;-1.050;2024-01-11T11:22:26;10.07;;;6.78;;
18568;SDS011;14780;48.316;-1.050;2024-01-11T11:25:23;12.02;;;7.40;;
18568;SDS011;14780;48.316;-1.050;2024-01-11T11:28:10;11.70;;;6.97;;
18568;SDS011;14780;48.316;-1.050;2024-01-11T11:30:56;10.32;;;6.82;;
18568;SDS011;14780;48.316;-1.050;2024-01-11T11:33:46;9.45;;;6.22;;
18568;SDS011;14780;48.316;-1.050;2024-01-11T11:36:34;10.43;;;6.38;;
18568;SDS011;14780;48.316;-1.050;2024-01-11T11:39:19;9.85;;;6.55;;
18568;SDS011;14780;48.316;-1.050;2024-01-11T11:42:04;9.95;;;6.20;;
18568;SDS011;14780;48.316;-1.050;2024-01-11T11:44:49;8.40;;;5.75;;
18568;SDS011;14780;48.316;-1.050;2024-01-11T11:47:36;9.93;;;6.25;;
18568;SDS011;14780;48.316;-1.050;2024-01-11T11:50:22;9.80;;;6.28;;
18568;SDS011;14780;48.316;-1.050;2024-01-11T11:53:09;9.83;;;6.30;;
18568;SDS011;14780;48.316;-1.050;2024-01-11T11:55:55;10.23;;;5.90;;
18568;SDS011;14780;48.316;-1.050;2024-01-11T11:58:40;9.60;;;6.00;;
18568;SDS011;14780;48.316;-1.050;2024-01-11T12:01:26;10.20;;;6.40;;
18568;SDS011;14780;48.316;-1.050;2024-01-11T12:04:13;8.45;;;6.18;;
18568;SDS011;14780;48.316;-1.050;2024-01-11T12:06:58;10.27;;;6.20;;
18568;SDS011;14780;48.316;-1.050;2024-01-11T12:09:43;8.70;;;6.30;;
18568;SDS011;14780;48.316;-1.050;2024-01-11T12:12:28;7.93;;;5.80;;
18568;SDS011;14780;48.316;-1.050;2024-01-11T12:15:12;8.82;;;5.88;;
18568;SDS011;14780;48.316;-1.050;2024-01-11T12:17:58;10.05;;;5.90;;
18568;SDS011;14780;48.316;-1.050;2024-01-11T12:20:42;8.60;;;5.90;;
18568;SDS011;14780;48.316;-1.050;2024-01-11T12:23:28;12.70;;;5.72;;
18568;SDS011;14780;48.316;-1.050;2024-01-11T12:26:16;12.10;;;5.93;;
18568;SDS011;14780;48.316;-1.050;2024-01-11T12:29:05;8.50;;;5.82;;
18568;SDS011;14780;48.316;-1.050;2024-01-11T12:31:51;10.40;;;5.80;;
18568;SDS011;14780;48.316;-1.050;2024-01-11T12:34:36;8.48;;;5.63;;
18568;SDS011;14780;48.316;-1.050;2024-01-11T12:37:21;7.53;;;5.00;;
18568;SDS011;14780;48.316;-1.050;2024-01-11T12:40:06;8.53;;;5.77;;
18568;SDS011;14780;48.316;-1.050;2024-01-11T12:42:56;10.02;;;5.63;;
18568;SDS011;14780;48.316;-1.050;2024-01-11T12:45:42;7.47;;;5.00;;
18568;SDS011;14780;48.316;-1.050;2024-01-11T12:48:28;7.65;;;5.30;;
18568;SDS011;14780;48.316;-1.050;2024-01-11T12:51:15;8.30;;;5.28;;
18568;SDS011;14780;48.316;-1.050;2024-01-11T12:54:00;7.85;;;5.50;;
18568;SDS011;14780;48.316;-1.050;2024-01-11T12:56:45;7.88;;;5.20;;
18568;SDS011;14780;48.316;-1.050;2024-01-11T12:59:30;8.33;;;5.20;;
18568;SDS011;14780;48.316;-1.050;2024-01-11T13:02:15;7.28;;;4.80;;
18568;SDS011;14780;48.316;-1.050;2024-01-11T13:05:00;7.57;;;5.00;;
18568;SDS011;14780;48.316;-1.050;2024-01-11T13:07:46;7.22;;;4.80;;
18568;SDS011;14780;48.316;-1.050;2024-01-11T13:10:31;7.53;;;4.80;;
18568;SDS011;14780;48.316;-1.050;2024-01-11T13:13:16;7.07;;;4.93;;
18568;SDS011;14780;48.316;-1.050;2024-01-11T13:16:04;7.78;;;5.03;;
18568;SDS011;14780;48.316;-1.050;2024-01-11T13:18:58;6.30;;;4.57;;
18568;SDS011;14780;48.316;-1.050;2024-01-11T13:21:42;7.17;;;4.70;;
18568;SDS011;14780;48.316;-1.050;2024-01-11T13:24:27;7.47;;;4.70;;
18568;SDS011;14780;48.316;-1.050;2024-01-11T13:27:12;6.23;;;4.50;;
18568;SDS011;14780;48.316;-1.050;2024-01-11T13:29:56;6.80;;;4.63;;
18568;SDS011;14780;48.316;-1.050;2024-01-11T13:32:42;6.68;;;4.50;;
18568;SDS011;14780;48.316;-1.050;2024-01-11T13:35:26;6.77;;;4.60;;
18568;SDS011;14780;48.316;-1.050;2024-01-11T13:38:11;8.20;;;4.57;;
18568;SDS011;14780;48.316;-1.050;2024-01-11T13:40:56;7.00;;;4.67;;
18568;SDS011;14780;48.316;-1.050;2024-01-11T13:43:40;6.45;;;4.28;;
18568;SDS011;14780;48.316;-1.050;2024-01-11T13:46:25;6.10;;;4.00;;
18568;SDS011;14780;48.316;-1.050;2024-01-11T13:49:11;6.20;;;4.20;;
18568;SDS011;14780;48.316;-1.050;2024-01-11T13:51:55;6.97;;;4.55;;
18568;SDS011;14780;48.316;-1.050;2024-01-11T13:54:40;6.82;;;4.70;;
18568;SDS011;14780;48.316;-1.050;2024-01-11T13:57:25;6.47;;;4.60;;
18568;SDS011;14780;48.316;-1.050;2024-01-11T14:00:10;8.57;;;4.55;;
18568;SDS011;14780;48.316;-1.050;2024-01-11T14:02:55;7.27;;;5.00;;
18568;SDS011;14780;48.316;-1.050;2024-01-11T14:05:40;9.43;;;5.20;;
18568;SDS011;14780;48.316;-1.050;2024-01-11T14:08:25;7.47;;;4.90;;
18568;SDS011;14780;48.316;-1.050;2024-01-11T14:11:09;6.40;;;4.78;;
18568;SDS011;14780;48.316;-1.050;2024-01-11T14:13:54;7.68;;;4.93;;
18568;SDS011;14780;48.316;-1.050;2024-01-11T14:16:38;7.82;;;4.78;;
18568;SDS011;14780;48.316;-1.050;2024-01-11T14:19:23;7.17;;;4.90;;
18568;SDS011;14780;48.316;-1.050;2024-01-11T14:22:08;9.05;;;4.80;;
18568;SDS011;14780;48.316;-1.050;2024-01-11T14:24:52;6.82;;;4.63;;
18568;SDS011;14780;48.316;-1.050;2024-01-11T14:27:37;9.00;;;4.55;;
18568;SDS011;14780;48.316;-1.050;2024-01-11T14:30:22;8.82;;;4.60;;
18568;SDS011;14780;48.316;-1.050;2024-01-11T14:33:07;7.50;;;4.65;;
18568;SDS011;14780;48.316;-1.050;2024-01-11T14:35:51;7.93;;;4.82;;
18568;SDS011;14780;48.316;-1.050;2024-01-11T14:38:36;8.20;;;5.05;;
18568;SDS011;14780;48.316;-1.050;2024-01-11T14:41:21;9.80;;;6.50;;
18568;SDS011;14780;48.316;-1.050;2024-01-11T14:44:06;9.45;;;6.35;;
18568;SDS011;14780;48.316;-1.050;2024-01-11T14:46:51;10.05;;;6.88;;
18568;SDS011;14780;48.316;-1.050;2024-01-11T14:49:35;10.50;;;7.28;;
18568;SDS011;14780;48.316;-1.050;2024-01-11T14:52:20;11.35;;;7.20;;
18568;SDS011;14780;48.316;-1.050;2024-01-11T14:55:05;10.98;;;7.35;;
18568;SDS011;14780;48.316;-1.050;2024-01-11T14:57:53;12.38;;;7.70;;
18568;SDS011;14780;48.316;-1.050;2024-01-11T15:00:37;13.50;;;7.50;;
18568;SDS011;14780;48.316;-1.050;2024-01-11T15:03:22;12.73;;;7.97;;
18568;SDS011;14780;48.316;-1.050;2024-01-11T15:06:07;12.97;;;8.00;;
18568;SDS011;14780;48.316;-1.050;2024-01-11T15:08:53;9.65;;;6.82;;
18568;SDS011;14780;48.316;-1.050;2024-01-11T15:11:38;11.45;;;7.75;;
18568;SDS011;14780;48.316;-1.050;2024-01-11T15:14:23;16.30;;;8.00;;
18568;SDS011;14780;48.316;-1.050;2024-01-11T15:17:08;11.67;;;7.47;;
18568;SDS011;14780;48.316;-1.050;2024-01-11T15:19:53;13.43;;;7.63;;
18568;SDS011;14780;48.316;-1.050;2024-01-11T15:22:38;12.52;;;7.78;;
18568;SDS011;14780;48.316;-1.050;2024-01-11T15:25:23;14.88;;;8.05;;
18568;SDS011;14780;48.316;-1.050;2024-01-11T15:28:10;13.98;;;8.02;;
18568;SDS011;14780;48.316;-1.050;2024-01-11T15:30:55;13.57;;;7.87;;
18568;SDS011;14780;48.316;-1.050;2024-01-11T15:33:39;11.20;;;7.70;;
18568;SDS011;14780;48.316;-1.050;2024-01-11T15:36:24;12.90;;;7.50;;
18568;SDS011;14780;48.316;-1.050;2024-01-11T15:39:10;11.02;;;7.25;;
18568;SDS011;14780;48.316;-1.050;2024-01-11T15:41:55;8.02;;;6.32;;
18568;SDS011;14780;48.316;-1.050;2024-01-11T15:44:40;9.25;;;6.32;;
18568;SDS011;14780;48.316;-1.050;2024-01-11T15:47:25;11.10;;;6.50;;
18568;SDS011;14780;48.316;-1.050;2024-01-11T15:50:10;9.70;;;6.18;;
18568;SDS011;14780;48.316;-1.050;2024-01-11T15:52:55;8.87;;;5.83;;
18568;SDS011;14780;48.316;-1.050;2024-01-11T15:55:40;10.25;;;6.03;;
18568;SDS011;14780;48.316;-1.050;2024-01-11T15:58:25;9.93;;;5.80;;
18568;SDS011;14780;48.316;-1.050;2024-01-11T16:01:09;9.10;;;5.75;;
18568;SDS011;14780;48.316;-1.050;2024-01-11T16:03:54;8.43;;;5.38;;
18568;SDS011;14780;48.316;-1.050;2024-01-11T16:06:38;8.55;;;5.85;;
18568;SDS011;14780;48.316;-1.050;2024-01-11T16:09:23;9.27;;;5.40;;
18568;SDS011;14780;48.316;-1.050;2024-01-11T16:12:08;7.90;;;5.10;;
18568;SDS011;14780;48.316;-1.050;2024-01-11T16:14:52;9.40;;;5.47;;
18568;SDS011;14780;48.316;-1.050;2024-01-11T16:17:41;7.83;;;5.03;;